Anton, CO

7:04 AM MDT on October 23, 2014 (GMT -0600)
Cope, Colorado | Change Station
CLOSE
Current Station
Personal Weather Station
Location: Cope, CO
Elevation: 4423 ft
Nearby Weather Stations

Elev 4423 ft 39.67 °N, 102.85 °W | Updated 3 minutes ago

Clear
Clear
40.6 °F
Feels Like 41 °F
N
1.7
Wind Variable Wind from West

Today
High -- | Low -- °F
--% Chance of Precip.
Yesterday
High -- | Low -- °F
Precip. -- in
7:11 AM 6:02 PM
Waning Crescent, 0% visible
Pressure 30.10 in
Visibility 10.0 miles
Clouds Clear
Windchill 41 °F
Dew Point 38 °F
Humidity 92%
Rainfall 0.00 in
Snow Depth Not available.
UV 0 out of 12
Pollen 2.40 out of 12
Air Quality Not available.
Flu Activity Sporadic
METAR KAKO 231253Z AUTO 21008KT 10SM CLR 07/05 A3014 RMK AO2 SLP192 T00720050

More Conditions Fewer Conditions

Pressure 30.10 in
Visibility 10.0 miles
Clouds Clear
Windchill 41 °F
Dew Point 38 °F
Humidity 92%
Rainfall 0.00 in
Snow Depth Not available.
UV 0 out of 12
Pollen 2.40 out of 12
Air Quality Not available.
Flu Activity Sporadic
METAR KAKO 231253Z AUTO 21008KT 10SM CLR 07/05 A3014 RMK AO2 SLP192 T00720050

More Conditions Fewer Conditions

10-Day Weather Forecast

Almanac

Astronomy

Oct. 23, 2014 Rise Set
Actual Time 7:11 AM MDT 6:02 PM MDT
Civil Twilight 6:44 AM MDT 6:29 PM MDT
Nautical Twilight 6:12 AM MDT 7:01 PM MDT
Astronomical Twilight 5:41 AM MDT 7:32 PM MDT
Moon 6:53 AM MDT 6:05 PM MDT
Length of Visible Light 11h 45m
Length of Day
10h 50m
Tomorrow will be 2m 26s shorter.
Waning Crescent, 0% of the Moon is Illuminated
Today
Waning Crescent
Oct 23
New
Oct 30
First Quarter
Nov 6
Full
Nov 14
Last Quarter

Today's Extremes

State Highs State Lows

Community

WunderPhotos

Upload Photos

1,764,222 photos uploaded!

Nearby

Snow Depth

Station Depth Elevation
Glen Cove 1 in 11460 ft
Niwot 0 in 9910 ft
Lake Eldora 0 in 9700 ft
University Camp 1 in 10300 ft
Echo Lake 0 in 10600 ft

Earthquake Activity

City Distance Mag. Time & Date
No recent earthquake activity has been reported nearby.
Minimum magnitude displayed is 2.5.

Coastal Water Temperatures

Place Temperature
No Stations Reporting

Nearby Weather Stations